Latest Coastal Weather Observations for Rottnest Island

IDW60701

Issued at 5:05 am WST Sunday 26 October 2014 (issued every 10 minutes, with the page automatically refreshed every 10 minutes)

About coastal observations | Map of coastal stations | Coastal observations for WA | Marine services | Other Formats
Station Details ID: 009193 Name: ROTTNEST ISLAND Lat: -32.01 Lon: 115.50 Height: 43.1 m
Data from the previous 72 hours. | See also: Recent months at Rottnest Island
Date/Time
WST
Temp

°C
Wind Pressure Rain
since 9am
mm
Weather Cloud Vis
km
Sea
Height
m
Swell
Dir
 
Speed
knots
Gust
knots
hPa Trend Height
m
Period
s
Dir
26/05:00am 17.5 SW 14 18 1019.6 - 0.0 - - - - - - -
26/04:30am 17.2 SW 15 18 1019.5 - 0.0 - - - - - - -
26/04:00am 16.9 WSW 10 14 1019.5 - 0.0 - - - - - - -
26/03:30am 17.1 SW 15 19 1019.5 - 0.0 - - - - - - -
26/03:00am 17.1 SW 15 19 1019.3 - 0.0 - - - - - - -
26/02:30am 17.2 SW 17 21 1019.3 - 0.0 - - - - - - -
26/02:00am 17.3 SW 17 21 1019.3 - 0.0 - - - - - - -
26/01:30am 17.0 WSW 12 15 1019.4 - 0.0 - - - - - - -
26/01:00am 16.9 SW 14 18 1019.4 - 0.0 - - - - - - -
26/12:30am 17.1 WSW 12 16 1019.6 - 0.0 - - - - - - -
26/12:00am 17.1 SW 15 18 1019.8 - 0.0 - - - - - - -
 
Date/Time
WST
Temp

°C
Wind Pressure Rain
since 9am
mm
Weather Cloud Vis
km
Sea
Height
m
Swell
Dir
 
Speed
knots
Gust
knots
hPa Trend Height
m
Period
s
Dir
25/11:30pm 17.2 SW 14 19 1019.8 - 0.0 - - - - - - -
25/11:00pm 17.1 SW 13 16 1019.7 - 0.0 - - - - - - -
25/10:30pm 17.2 WSW 11 16 1019.6 - 0.0 - - - - - - -
25/10:00pm 17.0 SW 14 19 1019.6 - 0.0 - - - - - - -
25/09:30pm 17.3 WSW 14 19 1019.7 - 0.0 - - - - - - -
25/09:00pm 17.5 SW 16 21 1019.9 - 0.0 - - - - - - -
25/08:30pm 17.5 WSW 15 19 1019.7 - 0.0 - - - - - - -
25/08:00pm 18.0 WSW 15 21 1019.5 - 0.0 - - - - - - -
25/07:30pm 18.0 WSW 14 19 1019.2 - 0.0 - - - - - - -
25/07:00pm 18.1 WSW 16 20 1018.9 - 0.0 - - - - - - -
25/06:30pm 18.6 WSW 15 22 1018.6 - 0.0 - - - - - - -
25/06:00pm 18.5 WSW 17 20 1018.3 - 0.0 - - - - - - -
25/05:30pm 19.1 SW 15 18 1018.0 - 0.0 - - - - - - -
25/05:00pm 19.0 SW 15 18 1018.0 - 0.0 - - - - - - -
25/04:30pm 18.9 SW 15 18 1017.9 - 0.0 - - - - - - -
25/04:00pm 18.1 W 17 23 1018.0 - 0.0 - - - - - - -
25/03:30pm 20.1 WNW 16 20 1017.8 - 0.0 - - - - - - -
25/03:00pm 20.4 WNW 17 20 1017.8 - 0.0 - - - - - - -
25/02:30pm 19.9 WNW 17 20 1017.9 - 0.0 - - - - - - -
25/02:00pm 20.6 WNW 15 18 1017.8 - 0.0 - - - - - - -
25/01:30pm 20.8 W 14 17 1017.9 - 0.0 - - - - - - -
25/01:00pm 21.6 W 14 19 1018.0 - 0.0 - - - - - - -
25/12:30pm 20.7 W 14 17 1018.0 - 0.0 - - - - - - -
25/12:00pm 20.5 W 13 16 1018.2 - 0.0 - - - - - - -
25/11:30am 21.0 W 14 19 1018.3 - 0.0 - - - - - - -
25/11:00am 20.7 W 14 18 1018.2 - 0.0 - - - - - - -
25/10:30am 20.4 W 13 18 1018.2 - 0.0 - - - - - - -
25/10:00am 19.9 W 12 15 1018.1 - 0.0 - - - - - - -
25/09:30am 19.5 W 13 16 1018.1 - 0.0 - - - - - - -
25/09:00am 19.3 W 12 17 1017.8 - 0.0 - - - - - - -
25/08:30am 19.1 WSW 14 17 1017.5 - 0.0 - - - - - - -
25/08:00am 19.0 WSW 12 15 1017.2 - 0.0 - - - - - - -
25/07:30am 18.6 WSW 13 19 1017.0 - 0.0 - - - - - - -
25/07:00am 18.1 WSW 13 17 1016.7 - 0.0 - - - - - - -
25/06:30am 17.9 WSW 11 15 1016.4 - 0.0 - - - - - - -
25/06:00am 17.1 WSW 10 13 1016.1 - 0.0 - - - - - - -
25/05:30am 17.5 WSW 12 15 1015.7 - 0.0 - - - - - - -
25/05:00am 17.0 WSW 11 13 1015.6 - 0.0 - - - - - - -
25/04:30am 17.2 WSW 11 14 1015.6 - 0.0 - - - - - - -
25/04:00am 17.6 WSW 13 17 1015.3 - 0.0 - - - - - - -
25/03:30am 17.5 WSW 11 14 1015.1 - 0.0 - - - - - - -
25/03:00am 17.5 WSW 12 16 1014.9 - 0.0 - - - - - - -
25/02:30am 17.9 W 9 13 1014.9 - 0.0 - - - - - - -
25/02:00am 17.3 WSW 7 8 1014.6 - 0.0 - - - - - - -
25/01:30am 17.0 WSW 9 10 1015.0 - 0.0 - - - - - - -
25/01:00am 17.0 WSW 8 9 1015.0 - 0.0 - - - - - - -
25/12:30am 17.1 WSW 9 10 1015.2 - 0.0 - - - - - - -
25/12:00am 17.4 WSW 9 10 1015.2 - 0.0 - - - - - - -
 
Date/Time
WST
Temp

°C
Wind Pressure Rain
since 9am
mm
Weather Cloud Vis
km
Sea
Height
m
Swell
Dir
 
Speed
knots
Gust
knots
hPa Trend Height
m
Period
s
Dir
24/11:30pm 17.4 WSW 9 11 1015.4 - 0.0 - - - - - - -
24/11:00pm 17.1 WSW 7 8 1015.7 - 0.0 - - - - - - -
24/10:30pm 17.3 SW 7 9 1015.7 - 0.0 - - - - - - -
24/10:00pm 17.6 SSW 8 11 1015.8 - 0.0 - - - - - - -
24/09:30pm 17.6 SSW 8 9 1015.8 - 0.0 - - - - - - -
24/09:00pm 17.8 SSW 10 13 1015.8 - 0.0 - - - - - - -
24/08:30pm 18.0 SSW 11 13 1015.8 - 0.0 - - - - - - -
24/08:00pm 17.9 SSW 11 14 1015.7 - 0.0 - - - - - - -
24/07:30pm 18.1 SSW 11 13 1015.5 - 0.0 - - - - - - -
24/07:00pm 18.1 S 11 14 1015.2 - 0.0 - - - - - - -
24/06:30pm 18.2 SSW 11 14 1015.3 - 0.0 - - - - - - -
24/06:00pm 19.0 SSW 11 15 1015.1 - 0.0 - - - - - - -
24/05:30pm 19.5 SSW 13 16 1015.1 - 0.0 - - - - - - -
24/05:00pm 19.9 SSW 13 16 1014.9 - 0.0 - - - - - - -
24/04:30pm 20.1 SSW 14 17 1014.8 - 0.0 - - - - - - -
24/04:00pm 20.4 SSW 14 17 1014.7 - 0.0 - - - - - - -
24/03:30pm 20.9 SSW 13 16 1014.7 - 0.0 - - - - - - -
24/03:00pm 20.6 SSW 12 15 1014.5 - 0.0 - - - - - - -
24/02:30pm 21.0 S 12 14 1014.7 - 0.0 - - - - - - -
24/02:00pm 21.2 SSW 13 15 1015.3 - 0.0 - - - - - - -
24/01:30pm 20.7 SSW 12 15 1015.5 - 0.0 - - - - - - -
24/01:00pm 21.0 SW 11 13 1015.9 - 0.0 - - - - - - -
24/12:30pm 21.4 S 11 12 1016.1 - 0.0 - - - - - - -
24/12:00pm 20.3 S 9 11 1016.5 - 0.0 - - - - - - -
24/11:30am 19.5 S 9 11 1016.6 - 0.0 - - - - - - -
24/11:00am 20.1 SSE 9 11 1017.1 - 0.0 - - - - - - -
24/10:30am 20.4 SSE 7 10 1017.4 - 0.0 - - - - - - -
24/10:00am 19.9 SE 7 11 1017.6 - 0.0 - - - - - - -
24/09:30am 19.1 SSE 8 11 1017.8 - 0.0 - - - - - - -
24/09:00am 18.9 ESE 5 8 1018.0 - 0.0 - - - - - - -
24/08:30am 18.4 ENE 6 10 1017.8 - 0.0 - - - - - - -
24/08:00am 18.1 ENE 8 12 1017.7 - 0.0 - - - - - - -
24/07:30am 17.2 NE 6 9 1018.0 - 0.0 - - - - - - -
24/07:00am 16.8 ENE 8 10 1017.4 - 0.0 - - - - - - -
24/06:30am 15.6 E 8 11 1017.2 - 0.0 - - - - - - -
24/06:00am 15.2 E 8 10 1017.3 - 0.0 - - - - - - -
24/05:30am 15.2 E 7 9 1017.2 - 0.0 - - - - - - -
24/05:00am 15.6 E 8 10 1017.0 - 0.0 - - - - - - -
24/04:30am 15.8 E 7 8 1017.0 - 0.0 - - - - - - -
24/04:00am 15.7 ESE 6 8 1017.1 - 0.0 - - - - - - -
24/03:30am 16.0 ESE 6 9 1017.0 - 0.0 - - - - - - -
24/03:00am 16.4 SE 8 11 1017.2 - 0.0 - - - - - - -
24/02:30am 16.8 SE 10 13 1017.1 - 0.0 - - - - - - -
24/02:00am 17.0 SSE 10 14 1017.2 - 0.0 - - - - - - -
24/01:30am 17.3 SSE 10 13 1017.2 - 0.0 - - - - - - -
24/01:00am 17.3 S 13 15 1017.2 - 0.0 - - - - - - -
24/12:30am 17.4 S 13 16 1017.1 - 0.0 - - - - - - -
24/12:00am 17.2 S 14 16 1017.4 - 0.0 - - - - - - -
 
Date/Time
WST
Temp

°C
Wind Pressure Rain
since 9am
mm
Weather Cloud Vis
km
Sea
Height
m
Swell
Dir
 
Speed
knots
Gust
knots
hPa Trend Height
m
Period
s
Dir
23/11:30pm 17.2 S 15 18 1017.3 - 0.0 - - - - - - -
23/11:00pm 17.2 S 15 18 1017.5 - 0.0 - - - - - - -
23/10:30pm 17.3 S 15 18 1017.7 - 0.0 - - - - - - -
23/10:00pm 17.4 S 15 17 1017.8 - 0.0 - - - - - - -
23/09:30pm 17.4 S 14 18 1018.0 - 0.0 - - - - - - -
23/09:00pm 17.4 S 13 16 1018.1 - 0.0 - - - - - - -
23/08:30pm 17.6 SSW 15 17 1017.9 - 0.0 - - - - - - -
23/08:00pm 17.5 SSW 12 16 1017.8 - 0.0 - - - - - - -
23/07:30pm 17.7 S 15 18 1017.5 - 0.0 - - - - - - -
23/07:00pm 17.7 SSW 15 19 1017.4 - 0.0 - - - - - - -
23/06:30pm 17.7 S 14 18 1017.2 - 0.0 - - - - - - -
23/06:00pm 18.1 SSW 14 18 1017.0 - 0.0 - - - - - - -
23/05:30pm 18.5 S 17 20 1016.6 - 0.0 - - - - - - -
23/05:00pm 19.0 S 17 20 1016.4 - 0.0 - - - - - - -
23/04:30pm 19.2 SSW 16 19 1016.2 - 0.0 - - - - - - -
23/04:00pm 19.6 S 16 19 1016.3 - 0.0 - - - - - - -
23/03:30pm 19.6 S 16 20 1016.2 - 0.0 - - - - - - -
23/03:00pm 20.0 S 17 21 1016.2 - 0.0 - - - - - - -
23/02:30pm 20.2 SSW 15 18 1016.3 - 0.0 - - - - - - -
23/02:00pm 19.9 SW 13 16 1016.4 - 0.0 - - - - - - -
23/01:30pm 19.4 SW 12 15 1016.4 - 0.0 - - - - - - -
23/01:00pm 20.0 SSW 15 18 1016.3 - 0.0 - - - - - - -
23/12:30pm 20.9 SW 15 19 1016.3 - 0.0 - - - - - - -
23/12:00pm 20.7 SW 15 19 1016.4 - 0.0 - - - - - - -
23/11:30am 21.3 SW 15 18 1016.2 - 0.0 - - - - - - -
23/11:00am 20.6 SW 15 19 1016.3 - 0.0 - - - - - - -
23/10:30am 20.4 WSW 14 18 1016.3 - 0.0 - - - - - - -
23/10:00am 20.4 WSW 13 17 1016.1 - 0.0 - - - - - - -
23/09:30am 19.3 SW 13 16 1015.9 - 0.0 - - - - - - -
23/09:00am 19.8 W 14 18 1015.6 - 0.2 - - - - - - -
23/08:30am 19.8 W 12 17 1015.3 - 0.2 - - - - - - -
23/08:00am 19.4 W 12 16 1015.2 - 0.2 - - - - - - -
23/07:30am 18.9 W 14 18 1015.0 - 0.2 - - - - - - -
23/07:00am 18.6 W 11 17 1014.6 - 0.2 - - - - - - -
23/06:30am 17.8 WSW 13 17 1014.3 - 0.2 - - - - - - -
23/06:00am 17.5 WSW 13 17 1013.9 - 0.2 - - - - - - -
23/05:30am 17.1 WSW 11 14 1013.4 - 0.2 - - - - - - -

Other Formats:

Comma delimited format used in spreadsheet applications
http://www.bom.gov.au/fwo/IDW60701/IDW60701.94602.axf

JavaScript Object Notation format (JSON) in row-major order
http://www.bom.gov.au/fwo/IDW60701/IDW60701.94602.json